Time;durP1;ratioP1;P1;durP2;ratioP2;P2;SDS_P1;SDS_P2;PMS_P1;PMS_P2;Temp;Humidity;BMP_temperature;BMP_pressure;BME280_temperature;BME280_humidity;BME280_pressure;Samples;Min_cycle;Max_cycle;Signal;HPM_P1;HPM_P2
2023/06/09 00:00:58;;;;;;;;;;;18.80;99.90;;;;;;5093235;28;20028;-64
2023/06/09 00:03:24;;;;;;;;;;;18.80;99.90;;;;;;5093689;28;20459;-63
2023/06/09 00:05:49;;;;;;;;;;;18.70;99.90;;;;;;5093719;28;20435;-64
2023/06/09 00:08:15;;;;;;;;;;;18.60;99.90;;;;;;5093318;28;20069;-64
2023/06/09 00:10:41;;;;;;;;;;;18.60;99.90;;;;;;5093697;28;20081;-63
2023/06/09 00:13:07;;;;;;;;;;;18.50;99.90;;;;;;5093835;28;19992;-63
2023/06/09 00:15:33;;;;;;;;;;;18.50;99.90;;;;;;5093480;28;19989;-64
2023/06/09 00:18:02;;;;;;;;;;;18.30;99.90;;;;;;5093447;28;20076;-63
2023/06/09 00:20:33;;;;;;;;;;;18.20;99.90;;;;;;5095012;28;20455;-63
2023/06/09 00:22:59;;;;;;;;;;;18.20;99.90;;;;;;5097284;28;20354;-63
2023/06/09 00:25:25;;;;;;;;;;;18.20;99.90;;;;;;5097556;28;19985;-62
2023/06/09 00:27:50;;;;;;;;;;;18.10;99.90;;;;;;5097404;28;19981;-64
2023/06/09 00:30:19;;;;;;;;;;;18.10;99.90;;;;;;5097353;28;19985;-63
2023/06/09 00:32:45;;;;;;;;;;;18.00;99.90;;;;;;5097495;28;20019;-63
2023/06/09 00:35:10;;;;;;;;;;;18.00;99.90;;;;;;5097200;28;19989;-63
2023/06/09 00:37:36;;;;;;;;;;;18.10;99.90;;;;;;5097013;28;19984;-64
2023/06/09 00:40:03;;;;;;;;;;;18.10;99.90;;;;;;5096961;28;20009;-63
2023/06/09 00:42:30;;;;;;;;;;;18.10;99.90;;;;;;5097216;28;20081;-62
2023/06/09 00:44:55;;;;;;;;;;;18.10;99.90;;;;;;5097504;28;19992;-63
2023/06/09 00:47:21;;;;;;;;;;;18.10;99.90;;;;;;5096943;28;19985;-63
2023/06/09 00:49:47;;;;;;;;;;;18.10;99.90;;;;;;5096911;28;19992;-63
2023/06/09 00:52:13;;;;;;;;;;;18.10;99.90;;;;;;5097020;28;19981;-63
2023/06/09 00:54:39;;;;;;;;;;;18.20;99.90;;;;;;5096817;28;19988;-63
2023/06/09 00:57:07;;;;;;;;;;;18.20;99.90;;;;;;5096945;28;19981;-64
2023/06/09 00:59:35;;;;;;;;;;;18.20;99.90;;;;;;5096721;28;20006;-64
2023/06/09 01:02:03;;;;;;;;;;;18.20;99.90;;;;;;5096445;28;20016;-63
2023/06/09 01:04:29;;;;;;;;;;;18.20;99.90;;;;;;5096487;28;19981;-63
2023/06/09 01:07:17;;;;;;;;;;;18.30;99.90;;;;;;5096646;28;19985;-62
2023/06/09 01:09:45;;;;;;;;;;;18.20;99.90;;;;;;5096622;28;19981;-63
2023/06/09 01:12:40;;;;;;;;;;;18.20;99.90;;;;;;5096594;28;19996;-63
2023/06/09 01:15:08;;;;;;;;;;;18.20;99.90;;;;;;5087184;28;19992;-63
2023/06/09 01:17:36;;;;;;;;;;;18.20;99.90;;;;;;5096458;28;20092;-63
2023/06/09 01:20:05;;;;;;;;;;;18.20;99.90;;;;;;5096083;28;20099;-63
2023/06/09 01:22:36;;;;;;;;;;;18.10;99.90;;;;;;5096480;28;20016;-63
2023/06/09 01:25:05;;;;;;;;;;;18.10;99.90;;;;;;5096322;28;19995;-63
2023/06/09 01:27:31;;;;;;;;;;;18.10;99.90;;;;;;5096300;28;19985;-64
2023/06/09 01:29:58;;;;;;;;;;;18.10;99.90;;;;;;5096345;28;20095;-62
2023/06/09 01:32:25;;;;;;;;;;;18.00;99.90;;;;;;5095637;28;20339;-63
2023/06/09 01:34:51;;;;;;;;;;;18.10;99.90;;;;;;5095983;28;19986;-63
2023/06/09 01:37:17;;;;;;;;;;;18.00;99.90;;;;;;5096104;28;20024;-64
2023/06/09 01:39:43;;;;;;;;;;;18.00;99.90;;;;;;5096009;28;20047;-64
2023/06/09 01:42:08;;;;;;;;;;;18.00;99.90;;;;;;5095886;28;19988;-63
2023/06/09 01:44:34;;;;;;;;;;;17.90;99.90;;;;;;5096248;28;20034;-63
2023/06/09 01:47:01;;;;;;;;;;;18.00;99.90;;;;;;5095907;28;20060;-63
2023/06/09 01:49:32;;;;;;;;;;;18.00;99.90;;;;;;5095596;28;19985;-63
2023/06/09 01:52:02;;;;;;;;;;;17.90;99.90;;;;;;5095818;28;19981;-63
2023/06/09 01:54:33;;;;;;;;;;;17.90;99.90;;;;;;5095759;28;20454;-64
2023/06/09 01:57:05;;;;;;;;;;;17.90;99.90;;;;;;5095840;28;20040;-63
2023/06/09 01:59:34;;;;;;;;;;;17.90;99.90;;;;;;5095528;28;20016;-64
2023/06/09 02:02:01;;;;;;;;;;;17.90;99.90;;;;;;5095295;28;20077;-62
2023/06/09 02:04:27;;;;;;;;;;;17.90;99.90;;;;;;5095498;28;20079;-64
2023/06/09 02:06:53;;;;;;;;;;;17.90;99.90;;;;;;5095567;28;20067;-63
2023/06/09 02:09:19;;;;;;;;;;;17.90;99.90;;;;;;5095362;28;20458;-62
2023/06/09 02:11:51;;;;;;;;;;;17.90;99.90;;;;;;5095672;28;19985;-63
2023/06/09 02:14:17;;;;;;;;;;;17.90;99.90;;;;;;5095469;28;19992;-63
2023/06/09 02:16:43;;;;;;;;;;;17.90;99.90;;;;;;5095061;28;19995;-63
2023/06/09 02:19:12;;;;;;;;;;;17.90;99.90;;;;;;5095304;28;20012;-63
2023/06/09 02:21:38;;;;;;;;;;;17.90;99.90;;;;;;5095234;28;19985;-63
2023/06/09 02:24:03;;;;;;;;;;;18.00;99.90;;;;;;5095106;28;20324;-63
2023/06/09 02:26:29;;;;;;;;;;;17.90;99.90;;;;;;5095265;28;19988;-63
2023/06/09 02:28:54;;;;;;;;;;;17.90;99.90;;;;;;5095192;28;20026;-63
2023/06/09 02:31:20;;;;;;;;;;;17.90;99.90;;;;;;5094752;28;19981;-63
2023/06/09 02:33:46;;;;;;;;;;;18.00;99.90;;;;;;5094889;28;19997;-64
2023/06/09 02:36:12;;;;;;;;;;;18.00;99.90;;;;;;5095036;28;19989;-63
2023/06/09 02:38:38;;;;;;;;;;;17.90;99.90;;;;;;5094906;28;20426;-63
2023/06/09 02:41:03;;;;;;;;;;;17.90;99.90;;;;;;5094706;28;20041;-63
2023/06/09 02:43:29;;;;;;;;;;;17.90;99.90;;;;;;5093981;28;20435;-63
2023/06/09 02:45:55;;;;;;;;;;;17.90;99.90;;;;;;5094508;28;19985;-63
2023/06/09 02:48:20;;;;;;;;;;;17.90;99.90;;;;;;5094621;28;20047;-63
2023/06/09 02:50:46;;;;;;;;;;;17.90;99.90;;;;;;5093428;28;19996;-63
2023/06/09 02:53:11;;;;;;;;;;;17.90;99.90;;;;;;5094653;28;20073;-63
2023/06/09 02:55:38;;;;;;;;;;;17.90;99.90;;;;;;5094539;28;19988;-63
2023/06/09 02:58:03;;;;;;;;;;;18.00;99.90;;;;;;5094683;28;20075;-63
2023/06/09 03:00:29;;;;;;;;;;;18.00;99.90;;;;;;5094191;28;20107;-63
2023/06/09 03:02:56;;;;;;;;;;;18.00;99.90;;;;;;5094308;28;20016;-64
2023/06/09 03:05:24;;;;;;;;;;;18.00;99.90;;;;;;5094530;28;20033;-63
2023/06/09 03:07:49;;;;;;;;;;;17.90;99.90;;;;;;5094365;28;19981;-63
2023/06/09 03:10:15;;;;;;;;;;;17.90;99.90;;;;;;5094295;28;20004;-63
2023/06/09 03:12:40;;;;;;;;;;;17.90;99.90;;;;;;5094239;28;19987;-63
2023/06/09 03:15:07;;;;;;;;;;;17.90;99.90;;;;;;5094069;28;20028;-63
2023/06/09 03:17:33;;;;;;;;;;;17.90;99.90;;;;;;5094168;28;20454;-64
2023/06/09 03:19:58;;;;;;;;;;;17.80;99.90;;;;;;5094009;28;20012;-63
2023/06/09 03:22:27;;;;;;;;;;;17.70;99.90;;;;;;5094162;28;19989;-63
2023/06/09 03:24:52;;;;;;;;;;;17.70;99.90;;;;;;5094130;28;20031;-62
2023/06/09 03:27:18;;;;;;;;;;;17.80;99.90;;;;;;5093995;28;20029;-63
2023/06/09 03:29:44;;;;;;;;;;;17.80;99.90;;;;;;5093913;28;20087;-64
2023/06/09 03:32:09;;;;;;;;;;;17.80;99.90;;;;;;5094097;28;19981;-64
2023/06/09 03:34:35;;;;;;;;;;;17.90;99.90;;;;;;5094198;28;20329;-62
2023/06/09 03:37:03;;;;;;;;;;;17.90;99.90;;;;;;5094213;28;20385;-63
2023/06/09 03:39:28;;;;;;;;;;;17.90;99.90;;;;;;5093934;28;20005;-63
2023/06/09 03:41:54;;;;;;;;;;;17.80;99.90;;;;;;5093819;28;20324;-64
2023/06/09 03:44:21;;;;;;;;;;;17.80;99.90;;;;;;5093658;28;19985;-64
2023/06/09 03:46:46;;;;;;;;;;;17.90;99.90;;;;;;5093927;28;20025;-63
2023/06/09 03:49:12;;;;;;;;;;;17.80;99.90;;;;;;5093872;28;20034;-63
2023/06/09 03:51:37;;;;;;;;;;;17.80;99.90;;;;;;5093758;28;19982;-64
2023/06/09 03:54:03;;;;;;;;;;;17.70;99.90;;;;;;5094622;28;19988;-64
2023/06/09 03:56:29;;;;;;;;;;;17.70;99.90;;;;;;5097990;28;19992;-63
2023/06/09 03:58:55;;;;;;;;;;;17.80;99.90;;;;;;5097644;28;19985;-63
2023/06/09 04:01:21;;;;;;;;;;;17.80;99.90;;;;;;5097559;28;20017;-63
2023/06/09 04:03:46;;;;;;;;;;;17.90;99.90;;;;;;5097897;28;19989;-64
2023/06/09 04:06:12;;;;;;;;;;;17.90;99.90;;;;;;5097766;28;19988;-63
2023/06/09 04:08:38;;;;;;;;;;;17.90;99.90;;;;;;5097964;28;20075;-63
2023/06/09 04:11:03;;;;;;;;;;;17.90;99.90;;;;;;5097748;28;19981;-64
2023/06/09 04:13:29;;;;;;;;;;;17.90;99.90;;;;;;5097349;28;19985;-65
2023/06/09 04:15:54;;;;;;;;;;;17.90;99.90;;;;;;5097810;28;19981;-64
2023/06/09 04:18:20;;;;;;;;;;;18.00;99.90;;;;;;5097749;28;20432;-62
2023/06/09 04:20:46;;;;;;;;;;;18.10;99.90;;;;;;5097525;28;20351;-63
2023/06/09 04:23:11;;;;;;;;;;;18.20;99.90;;;;;;5097440;28;20414;-64
2023/06/09 04:25:37;;;;;;;;;;;18.20;99.90;;;;;;5097579;28;19985;-63
2023/06/09 04:28:03;;;;;;;;;;;18.30;99.90;;;;;;5097185;28;19982;-62
2023/06/09 04:30:30;;;;;;;;;;;18.30;99.90;;;;;;5097268;28;19982;-62
2023/06/09 04:32:58;;;;;;;;;;;18.30;99.90;;;;;;5097311;28;19985;-63
2023/06/09 04:35:24;;;;;;;;;;;18.40;99.90;;;;;;5097317;28;20496;-63
2023/06/09 04:37:49;;;;;;;;;;;18.30;99.90;;;;;;5097119;28;19989;-64
2023/06/09 04:40:21;;;;;;;;;;;18.40;99.90;;;;;;5097032;28;20013;-64
2023/06/09 04:42:51;;;;;;;;;;;18.40;99.90;;;;;;5096812;28;19996;-63
2023/06/09 04:45:20;;;;;;;;;;;18.40;99.90;;;;;;5097300;28;19996;-64
2023/06/09 04:47:48;;;;;;;;;;;18.50;99.90;;;;;;5097165;28;20034;-64
2023/06/09 04:50:15;;;;;;;;;;;18.50;99.90;;;;;;5097251;28;19989;-63
2023/06/09 04:52:42;;;;;;;;;;;18.50;99.90;;;;;;5096861;28;20428;-62
2023/06/09 04:55:08;;;;;;;;;;;18.50;99.90;;;;;;5097218;28;19985;-62
2023/06/09 04:57:34;;;;;;;;;;;18.50;99.90;;;;;;5096452;28;19981;-63
2023/06/09 05:00:15;;;;;;;;;;;18.60;99.90;;;;;;5096489;28;20101;-62
2023/06/09 05:02:42;;;;;;;;;;;18.70;99.90;;;;;;5096742;28;20016;-64
2023/06/09 05:05:08;;;;;;;;;;;18.80;99.90;;;;;;5096373;28;20354;-63
2023/06/09 05:07:35;;;;;;;;;;;18.80;99.90;;;;;;5096137;28;20016;-63
2023/06/09 05:10:01;;;;;;;;;;;18.80;99.90;;;;;;5096725;28;19981;-62
2023/06/09 05:12:26;;;;;;;;;;;18.80;99.90;;;;;;5095611;28;19992;-64
2023/06/09 05:14:52;;;;;;;;;;;18.80;99.90;;;;;;5096670;28;20046;-63
2023/06/09 05:17:17;;;;;;;;;;;18.80;99.90;;;;;;5095198;28;19988;-63
2023/06/09 05:19:43;;;;;;;;;;;18.90;99.90;;;;;;5096419;28;20009;-64
2023/06/09 05:22:08;;;;;;;;;;;18.90;99.90;;;;;;5095205;28;20808;-64
2023/06/09 05:24:34;;;;;;;;;;;19.00;99.90;;;;;;5096426;28;20486;-63
2023/06/09 05:27:00;;;;;;;;;;;19.10;99.90;;;;;;5096095;28;19981;-64
2023/06/09 05:29:25;;;;;;;;;;;19.00;99.90;;;;;;5095991;28;20068;-64
2023/06/09 05:31:51;;;;;;;;;;;19.00;99.90;;;;;;5096184;28;19981;-63
2023/06/09 05:34:16;;;;;;;;;;;19.10;99.90;;;;;;5096075;28;19985;-64
2023/06/09 05:36:42;;;;;;;;;;;19.10;99.90;;;;;;5095982;28;19988;-64
2023/06/09 05:39:07;;;;;;;;;;;19.10;99.90;;;;;;5095945;28;20003;-63
2023/06/09 05:41:33;;;;;;;;;;;19.10;99.90;;;;;;5095814;28;19988;-63
2023/06/09 05:43:59;;;;;;;;;;;19.20;99.90;;;;;;5095868;28;20355;-63
2023/06/09 05:46:25;;;;;;;;;;;19.20;99.90;;;;;;5096068;28;20076;-64
2023/06/09 05:48:51;;;;;;;;;;;19.30;99.90;;;;;;5095765;28;19985;-64
2023/06/09 05:51:17;;;;;;;;;;;19.40;99.90;;;;;;5095851;28;19985;-63
2023/06/09 05:53:42;;;;;;;;;;;19.40;99.90;;;;;;5095596;28;20076;-64
2023/06/09 05:56:09;;;;;;;;;;;19.30;99.90;;;;;;5093886;28;20035;-63
2023/06/09 05:58:35;;;;;;;;;;;19.30;99.90;;;;;;5095879;28;20038;-64
2023/06/09 06:01:02;;;;;;;;;;;19.40;99.90;;;;;;5095315;28;20421;-64
2023/06/09 06:03:28;;;;;;;;;;;19.40;99.90;;;;;;5095418;28;20017;-63
2023/06/09 06:05:54;;;;;;;;;;;19.40;99.90;;;;;;5095559;28;19999;-64
2023/06/09 06:08:20;;;;;;;;;;;19.50;99.90;;;;;;5095181;28;19985;-64
2023/06/09 06:10:46;;;;;;;;;;;19.50;99.90;;;;;;5095107;28;19989;-64
2023/06/09 06:13:13;;;;;;;;;;;19.70;99.90;;;;;;5094082;28;19985;-63
2023/06/09 06:15:38;;;;;;;;;;;19.80;99.90;;;;;;5087756;28;20363;-63
2023/06/09 06:18:04;;;;;;;;;;;20.10;99.90;;;;;;5094943;28;19981;-64
2023/06/09 06:20:30;;;;;;;;;;;20.20;99.90;;;;;;5094451;28;20771;-63
2023/06/09 06:22:55;;;;;;;;;;;20.30;99.90;;;;;;5093745;28;19992;-63
2023/06/09 06:25:21;;;;;;;;;;;20.50;99.90;;;;;;5094113;28;20391;-64
2023/06/09 06:27:46;;;;;;;;;;;20.60;99.90;;;;;;5095101;28;19992;-64
2023/06/09 06:30:12;;;;;;;;;;;20.70;99.90;;;;;;5094945;28;19981;-64
2023/06/09 06:32:39;;;;;;;;;;;20.80;99.90;;;;;;5094771;28;19992;-63
2023/06/09 06:35:05;;;;;;;;;;;21.10;99.90;;;;;;5095217;28;19985;-64
2023/06/09 06:37:31;;;;;;;;;;;21.30;99.90;;;;;;5094874;28;19981;-63
2023/06/09 06:39:57;;;;;;;;;;;21.50;99.90;;;;;;5094655;28;20056;-63
2023/06/09 06:42:22;;;;;;;;;;;21.60;99.90;;;;;;5094749;28;19988;-63
2023/06/09 06:44:48;;;;;;;;;;;21.60;99.90;;;;;;5094700;28;20027;-64
2023/06/09 06:47:14;;;;;;;;;;;21.50;99.90;;;;;;5094747;28;20031;-63
2023/06/09 06:49:39;;;;;;;;;;;21.60;99.90;;;;;;5093102;28;20035;-63
2023/06/09 06:52:05;;;;;;;;;;;21.60;99.20;;;;;;5093140;28;20025;-64
2023/06/09 06:54:30;;;;;;;;;;;21.70;99.90;;;;;;5092626;28;19987;-63
2023/06/09 06:56:56;;;;;;;;;;;21.80;99.40;;;;;;5092827;28;19993;-63
2023/06/09 06:59:21;;;;;;;;;;;22.00;98.80;;;;;;5091884;28;20127;-63
2023/06/09 07:01:48;;;;;;;;;;;22.30;98.80;;;;;;5092280;28;20017;-64
2023/06/09 07:04:13;;;;;;;;;;;22.50;98.70;;;;;;5078373;28;20353;-65
2023/06/09 07:06:39;;;;;;;;;;;22.80;97.90;;;;;;5092908;28;19981;-66
2023/06/09 07:09:04;;;;;;;;;;;23.10;96.70;;;;;;5092266;28;19993;-64
2023/06/09 07:11:32;;;;;;;;;;;23.20;95.50;;;;;;5093469;28;20557;-67
2023/06/09 07:13:57;;;;;;;;;;;23.10;97.60;;;;;;5093965;28;19985;-66
2023/06/09 07:16:23;;;;;;;;;;;23.20;95.90;;;;;;5093525;28;19981;-64
2023/06/09 07:18:48;;;;;;;;;;;23.20;96.30;;;;;;5093797;28;19981;-63
2023/06/09 07:21:14;;;;;;;;;;;23.10;96.80;;;;;;5093484;28;20011;-65
2023/06/09 07:23:40;;;;;;;;;;;23.10;95.60;;;;;;5093979;28;19981;-62
2023/06/09 07:26:05;;;;;;;;;;;23.10;96.60;;;;;;5094117;28;20026;-64
2023/06/09 07:28:31;;;;;;;;;;;23.00;96.40;;;;;;5093262;28;20053;-62
2023/06/09 07:30:57;;;;;;;;;;;23.10;96.60;;;;;;5092159;28;19989;-63
2023/06/09 07:33:23;;;;;;;;;;;23.10;96.90;;;;;;5093579;28;20004;-63
2023/06/09 07:35:49;;;;;;;;;;;23.20;95.30;;;;;;5093124;28;20436;-64
2023/06/09 07:38:15;;;;;;;;;;;23.20;96.20;;;;;;5093272;28;20064;-64
2023/06/09 07:40:43;;;;;;;;;;;23.40;95.20;;;;;;5081959;28;20004;-65
2023/06/09 07:43:09;;;;;;;;;;;23.90;96.30;;;;;;5073034;28;19981;-63
2023/06/09 07:45:35;;;;;;;;;;;25.80;94.60;;;;;;5081358;28;20470;-63
2023/06/09 07:48:01;;;;;;;;;;;27.80;91.50;;;;;;5091528;28;20042;-62
2023/06/09 07:50:26;;;;;;;;;;;29.20;87.90;;;;;;5090803;28;20008;-63
2023/06/09 07:52:52;;;;;;;;;;;30.30;80.70;;;;;;5090659;28;20080;-64
2023/06/09 07:55:17;;;;;;;;;;;31.20;80.50;;;;;;5086376;28;20375;-62
2023/06/09 07:57:43;;;;;;;;;;;32.00;76.10;;;;;;5088464;28;20397;-64
2023/06/09 08:00:09;;;;;;;;;;;32.90;71.70;;;;;;5089425;28;20005;-62
2023/06/09 08:02:40;;;;;;;;;;;33.60;64.80;;;;;;5090974;28;20047;-66
2023/06/09 08:05:06;;;;;;;;;;;33.80;66.50;;;;;;5091529;28;20076;-65
2023/06/09 08:07:32;;;;;;;;;;;34.40;62.70;;;;;;5090419;28;20088;-64
2023/06/09 08:09:57;;;;;;;;;;;34.60;61.30;;;;;;5071505;28;20040;-64
2023/06/09 08:12:23;;;;;;;;;;;34.40;61.90;;;;;;5072911;28;20035;-63
2023/06/09 08:14:48;;;;;;;;;;;34.80;58.00;;;;;;5091690;28;19989;-63
2023/06/09 08:17:14;;;;;;;;;;;34.90;60.30;;;;;;5086245;28;20024;-65
2023/06/09 08:19:39;;;;;;;;;;;35.10;57.00;;;;;;5084109;28;20464;-62
2023/06/09 08:22:05;;;;;;;;;;;35.40;57.90;;;;;;5088126;28;19989;-64
2023/06/09 08:24:31;;;;;;;;;;;35.10;56.00;;;;;;5087746;28;20030;-64
2023/06/09 08:26:58;;;;;;;;;;;35.00;55.40;;;;;;5086376;28;20000;-62
2023/06/09 08:29:23;;;;;;;;;;;34.90;55.80;;;;;;5077800;28;20024;-65
2023/06/09 08:31:49;;;;;;;;;;;35.10;53.90;;;;;;5078018;28;20032;-65
2023/06/09 08:34:15;;;;;;;;;;;35.30;55.60;;;;;;5085413;28;19989;-63
2023/06/09 08:36:41;;;;;;;;;;;35.50;52.90;;;;;;5084274;28;19986;-64
2023/06/09 08:39:06;;;;;;;;;;;34.70;56.40;;;;;;5091498;28;20037;-63
2023/06/09 08:41:37;;;;;;;;;;;34.80;54.90;;;;;;5090319;28;19990;-63
2023/06/09 08:44:04;;;;;;;;;;;35.30;53.00;;;;;;5097016;28;19985;-63
2023/06/09 08:46:32;;;;;;;;;;;35.40;52.70;;;;;;5094241;28;19985;-63
2023/06/09 08:49:01;;;;;;;;;;;35.00;53.70;;;;;;5083751;28;19989;-65
2023/06/09 08:51:26;;;;;;;;;;;35.40;53.90;;;;;;5086233;28;19992;-64
2023/06/09 08:53:53;;;;;;;;;;;35.70;51.40;;;;;;5081144;28;19985;-65
2023/06/09 08:56:21;;;;;;;;;;;35.80;50.00;;;;;;5092996;28;20014;-65
2023/06/09 08:58:47;;;;;;;;;;;35.50;52.10;;;;;;5091802;28;20391;-64
2023/06/09 09:01:13;;;;;;;;;;;35.80;52.70;;;;;;5093574;28;20013;-65
2023/06/09 09:03:39;;;;;;;;;;;35.60;53.70;;;;;;5089901;28;19989;-64
2023/06/09 09:06:04;;;;;;;;;;;35.50;53.80;;;;;;5092100;28;20011;-64
2023/06/09 09:08:30;;;;;;;;;;;35.80;50.90;;;;;;5092925;28;19985;-64
2023/06/09 09:10:55;;;;;;;;;;;35.80;50.30;;;;;;5082933;28;20450;-65
2023/06/09 09:13:27;;;;;;;;;;;36.00;49.30;;;;;;5090924;28;20382;-65
2023/06/09 09:15:52;;;;;;;;;;;35.30;50.90;;;;;;5087771;28;20682;-65
2023/06/09 09:18:19;;;;;;;;;;;35.20;50.00;;;;;;5093111;28;20060;-63
2023/06/09 09:20:45;;;;;;;;;;;35.10;52.30;;;;;;5079899;28;20390;-64
2023/06/09 09:23:11;;;;;;;;;;;34.70;51.70;;;;;;5074118;28;19989;-64
2023/06/09 09:25:37;;;;;;;;;;;35.00;53.80;;;;;;5081627;28;20079;-65
2023/06/09 09:28:04;;;;;;;;;;;35.20;50.70;;;;;;5095135;28;19989;-65
2023/06/09 09:30:48;;;;;;;;;;;35.00;51.30;;;;;;5094817;28;20452;-64
2023/06/09 09:33:18;;;;;;;;;;;34.80;52.90;;;;;;5091764;28;20032;-65
2023/06/09 09:35:48;;;;;;;;;;;34.90;50.00;;;;;;5081381;28;19985;-64
2023/06/09 09:38:18;;;;;;;;;;;35.20;53.50;;;;;;5091230;28;20443;-65
2023/06/09 09:41:02;;;;;;;;;;;35.10;52.90;;;;;;5085692;28;20001;-66
2023/06/09 09:43:29;;;;;;;;;;;35.30;53.60;;;;;;5087151;28;19992;-64
2023/06/09 09:45:56;;;;;;;;;;;35.40;53.60;;;;;;5083081;28;20038;-63
2023/06/09 09:48:24;;;;;;;;;;;35.30;51.60;;;;;;5076793;28;19989;-64
2023/06/09 09:50:53;;;;;;;;;;;35.20;54.00;;;;;;5076780;28;19981;-65
2023/06/09 09:53:22;;;;;;;;;;;35.20;50.20;;;;;;5089234;28;20545;-67
2023/06/09 09:55:50;;;;;;;;;;;35.20;51.50;;;;;;5089721;28;20027;-66
2023/06/09 09:58:15;;;;;;;;;;;34.90;50.00;;;;;;5073622;28;19996;-63
2023/06/09 10:00:43;;;;;;;;;;;34.80;52.80;;;;;;5083824;28;20479;-62
2023/06/09 10:03:18;;;;;;;;;;;34.90;50.40;;;;;;5089510;28;20395;-62
2023/06/09 10:05:46;;;;;;;;;;;34.90;51.10;;;;;;5085466;28;20031;-64
2023/06/09 10:08:14;;;;;;;;;;;35.10;53.10;;;;;;5081259;28;19990;-66
2023/06/09 10:10:40;;;;;;;;;;;35.40;50.90;;;;;;5081563;28;20043;-65
2023/06/09 10:13:05;;;;;;;;;;;35.30;49.60;;;;;;5093166;28;19992;-65
2023/06/09 10:15:41;;;;;;;;;;;35.50;49.50;;;;;;5081511;28;19989;-64
2023/06/09 10:18:08;;;;;;;;;;;35.50;49.90;;;;;;5074568;28;20039;-63
2023/06/09 10:20:33;;;;;;;;;;;35.40;49.10;;;;;;5081725;28;20472;-64
2023/06/09 10:22:59;;;;;;;;;;;35.60;49.50;;;;;;5082140;28;19996;-66
2023/06/09 10:25:26;;;;;;;;;;;35.00;49.30;;;;;;5092224;28;19989;-67
2023/06/09 10:27:51;;;;;;;;;;;34.40;49.60;;;;;;5091358;28;20066;-63
2023/06/09 10:30:18;;;;;;;;;;;34.20;52.10;;;;;;5076566;28;19985;-64
2023/06/09 10:32:47;;;;;;;;;;;34.50;52.40;;;;;;5087572;28;20484;-64
2023/06/09 10:35:19;;;;;;;;;;;34.90;52.10;;;;;;5087743;28;19989;-63
2023/06/09 10:37:46;;;;;;;;;;;35.30;51.10;;;;;;5092008;28;20126;-64
2023/06/09 10:40:18;;;;;;;;;;;35.30;48.20;;;;;;5091666;28;20011;-64
2023/06/09 10:43:07;;;;;;;;;;;35.60;48.30;;;;;;5092480;28;20091;-63
2023/06/09 10:45:50;;;;;;;;;;;35.60;46.70;;;;;;5089170;28;20076;-64
2023/06/09 10:48:34;;;;;;;;;;;35.80;49.60;;;;;;5090773;28;20030;-65
2023/06/09 10:51:18;;;;;;;;;;;35.60;48.80;;;;;;5091159;28;19985;-64
2023/06/09 10:54:02;;;;;;;;;;;35.60;47.20;;;;;;5093630;28;19985;-64
2023/06/09 10:56:35;;;;;;;;;;;35.40;47.90;;;;;;5093024;28;20496;-64
2023/06/09 10:59:00;;;;;;;;;;;35.50;48.60;;;;;;5093377;28;19981;-64
2023/06/09 11:01:26;;;;;;;;;;;35.90;49.00;;;;;;5092774;28;20023;-63
2023/06/09 11:03:51;;;;;;;;;;;35.80;51.10;;;;;;5093427;28;19985;-64
2023/06/09 11:06:17;;;;;;;;;;;35.90;51.30;;;;;;5094487;28;20440;-63
2023/06/09 11:09:01;;;;;;;;;;;36.10;52.20;;;;;;5093451;28;20499;-65
2023/06/09 11:11:46;;;;;;;;;;;36.20;49.80;;;;;;5094271;28;20088;-65
2023/06/09 11:14:31;;;;;;;;;;;36.30;49.60;;;;;;5091562;28;20034;-65
2023/06/09 11:17:17;;;;;;;;;;;36.70;50.70;;;;;;5073683;28;20040;-65
2023/06/09 11:19:43;;;;;;;;;;;36.90;48.40;;;;;;5074949;28;20445;-66
2023/06/09 11:22:09;;;;;;;;;;;37.00;50.40;;;;;;5071290;28;19985;-64
2023/06/09 11:24:50;;;;;;;;;;;36.80;48.40;;;;;;5070130;28;19981;-64
2023/06/09 11:27:18;;;;;;;;;;;36.40;51.40;;;;;;5070820;28;19985;-62
2023/06/09 11:30:01;;;;;;;;;;;36.10;47.70;;;;;;5070827;28;19986;-64
2023/06/09 11:32:45;;;;;;;;;;;36.10;49.20;;;;;;5071947;28;20012;-63
2023/06/09 11:35:31;;;;;;;;;;;36.30;49.40;;;;;;5072055;28;19981;-62
2023/06/09 11:37:59;;;;;;;;;;;36.30;45.90;;;;;;5070084;28;20067;-63
2023/06/09 11:40:25;;;;;;;;;;;35.70;46.80;;;;;;5071652;28;20005;-63
2023/06/09 11:42:51;;;;;;;;;;;35.40;50.10;;;;;;5071330;28;20351;-64
2023/06/09 11:45:17;;;;;;;;;;;34.90;49.70;;;;;;5070650;28;20076;-65
2023/06/09 11:47:44;;;;;;;;;;;34.20;47.60;;;;;;5071396;28;20525;-62
2023/06/09 11:50:12;;;;;;;;;;;33.90;48.60;;;;;;5073251;28;20061;-62
2023/06/09 11:52:40;;;;;;;;;;;33.90;49.70;;;;;;5073511;28;20440;-64
2023/06/09 11:55:06;;;;;;;;;;;33.70;51.20;;;;;;5073581;28;19992;-63
2023/06/09 11:57:32;;;;;;;;;;;33.00;50.10;;;;;;5073424;28;19981;-63
2023/06/09 11:59:58;;;;;;;;;;;32.60;50.80;;;;;;5073582;28;20009;-63
2023/06/09 12:02:27;;;;;;;;;;;33.30;54.80;;;;;;5073227;28;20064;-63
2023/06/09 12:04:53;;;;;;;;;;;33.70;53.40;;;;;;5073798;28;20366;-64
2023/06/09 12:07:19;;;;;;;;;;;34.00;54.10;;;;;;5073377;28;19981;-63
2023/06/09 12:09:45;;;;;;;;;;;34.40;48.40;;;;;;5073083;28;20065;-63
2023/06/09 12:12:11;;;;;;;;;;;34.70;51.00;;;;;;5072635;28;19985;-62
2023/06/09 12:14:38;;;;;;;;;;;34.90;50.10;;;;;;5073297;28;20458;-63
2023/06/09 12:17:03;;;;;;;;;;;35.20;48.80;;;;;;5076870;28;20465;-64
2023/06/09 12:19:29;;;;;;;;;;;35.20;50.50;;;;;;5077554;28;20111;-63
2023/06/09 12:21:55;;;;;;;;;;;35.30;48.00;;;;;;5077238;28;20005;-64
2023/06/09 12:24:21;;;;;;;;;;;35.70;46.70;;;;;;5076940;28;19986;-62
2023/06/09 12:26:49;;;;;;;;;;;35.50;47.20;;;;;;5077110;28;19993;-62
2023/06/09 12:29:16;;;;;;;;;;;35.20;46.60;;;;;;5075561;28;19982;-64
2023/06/09 12:31:45;;;;;;;;;;;34.90;47.30;;;;;;5077195;28;20047;-63
2023/06/09 12:34:24;;;;;;;;;;;34.90;47.10;;;;;;5077146;28;19981;-62
2023/06/09 12:36:50;;;;;;;;;;;35.20;45.90;;;;;;5077562;28;19989;-62
2023/06/09 12:39:16;;;;;;;;;;;35.40;47.40;;;;;;5075508;28;19985;-64
2023/06/09 12:41:41;;;;;;;;;;;35.20;45.80;;;;;;5074998;28;19981;-62
2023/06/09 12:44:07;;;;;;;;;;;35.20;44.60;;;;;;5076789;28;20027;-64
2023/06/09 12:46:37;;;;;;;;;;;34.70;47.40;;;;;;5076840;28;19993;-63
2023/06/09 12:49:03;;;;;;;;;;;34.70;48.20;;;;;;5076731;28;20409;-64
2023/06/09 12:51:29;;;;;;;;;;;34.80;50.00;;;;;;5076347;28;19982;-63
2023/06/09 12:53:55;;;;;;;;;;;34.30;47.20;;;;;;5076540;28;20004;-62
2023/06/09 12:56:21;;;;;;;;;;;33.70;47.90;;;;;;5076480;28;19981;-62
2023/06/09 12:58:47;;;;;;;;;;;33.20;49.20;;;;;;5076808;28;20084;-66
2023/06/09 13:01:12;;;;;;;;;;;33.00;49.00;;;;;;5076547;28;20017;-64
2023/06/09 13:03:38;;;;;;;;;;;32.90;49.20;;;;;;5076387;28;20017;-62
2023/06/09 13:06:04;;;;;;;;;;;32.50;48.90;;;;;;5076439;28;19985;-61
2023/06/09 13:08:29;;;;;;;;;;;32.00;49.40;;;;;;5076569;28;20068;-64
2023/06/09 13:10:57;;;;;;;;;;;31.80;50.60;;;;;;5075468;28;21514;-64
2023/06/09 13:13:22;;;;;;;;;;;31.70;50.20;;;;;;5076260;28;19981;-64
2023/06/09 13:15:48;;;;;;;;;;;31.70;52.20;;;;;;5076457;28;20028;-63
2023/06/09 13:18:14;;;;;;;;;;;31.50;51.00;;;;;;5076466;28;20025;-63
2023/06/09 13:20:40;;;;;;;;;;;31.50;51.00;;;;;;5076210;28;20005;-64
2023/06/09 13:23:06;;;;;;;;;;;31.40;52.10;;;;;;5076395;28;20009;-62
2023/06/09 13:25:33;;;;;;;;;;;31.20;52.10;;;;;;5076291;28;20451;-63
2023/06/09 13:27:59;;;;;;;;;;;31.00;53.50;;;;;;5075622;28;19990;-64
2023/06/09 13:30:24;;;;;;;;;;;30.90;54.30;;;;;;5075968;28;19989;-63
2023/06/09 13:32:50;;;;;;;;;;;30.60;55.10;;;;;;5076132;28;20402;-63
2023/06/09 13:35:17;;;;;;;;;;;30.20;55.70;;;;;;5075955;28;20026;-64
2023/06/09 13:37:42;;;;;;;;;;;30.20;56.50;;;;;;5076127;28;20073;-63
2023/06/09 13:40:08;;;;;;;;;;;30.20;57.10;;;;;;5075634;28;20451;-62
2023/06/09 13:42:35;;;;;;;;;;;30.10;56.70;;;;;;5075911;28;19985;-64
2023/06/09 13:45:01;;;;;;;;;;;29.90;56.70;;;;;;5075684;28;19985;-64
2023/06/09 13:47:26;;;;;;;;;;;29.80;58.00;;;;;;5075870;28;20081;-64
2023/06/09 13:49:53;;;;;;;;;;;29.70;58.70;;;;;;5075753;28;19981;-63
2023/06/09 13:52:19;;;;;;;;;;;29.40;60.00;;;;;;5075621;28;19985;-62
2023/06/09 13:54:45;;;;;;;;;;;29.20;60.80;;;;;;5075667;28;19990;-64
2023/06/09 13:57:11;;;;;;;;;;;28.80;59.70;;;;;;5075663;28;19982;-64
2023/06/09 13:59:36;;;;;;;;;;;28.60;59.20;;;;;;5075522;28;20502;-63
2023/06/09 14:02:02;;;;;;;;;;;28.30;59.80;;;;;;5075153;28;20554;-63
2023/06/09 14:04:28;;;;;;;;;;;28.20;60.20;;;;;;5075421;28;20068;-65
2023/06/09 14:06:53;;;;;;;;;;;28.00;62.00;;;;;;5075695;28;20449;-64
2023/06/09 14:09:19;;;;;;;;;;;28.00;63.00;;;;;;5075048;28;20341;-64
2023/06/09 14:11:44;;;;;;;;;;;28.00;63.50;;;;;;5075344;28;20397;-63
2023/06/09 14:14:10;;;;;;;;;;;28.10;64.70;;;;;;5075300;28;19981;-63
2023/06/09 14:16:35;;;;;;;;;;;27.90;65.40;;;;;;5075039;28;19988;-65